Latest Weather Observations for Burketown Airport

IDQ60801

Issued at 12:03 pm EST Monday 27 June 2016 (issued every 30 minutes, with the page automatically refreshed every 10 minutes)

About weather observations | Map of weather stations | Latest weather observations for QLD | Other Formats
Station Details ID: 029077 Name: BURKETOWN AIRPORT Lat: -17.75 Lon: 139.54 Height: 5.7 m
Data from the previous 72 hours. | See also: Recent months at Burketown Airport
Date/Time
EST
Temp
°C
App
Temp
°C
Dew
Point
°C
Rel
Hum
%
Delta-T
°C
Wind Press
QNH
hPa
Press
MSL
hPa
Rain since
9am
mm
Dir  Spd
km/h
Gust
km/h
Spd
kts
Gust
kts
27/12:00pm 26.6 20.8 8.1 31 9.9 SSE 28 37 15 20 1017.1 1017.0 0.0
27/11:30am 26.1 19.6 8.1 32 9.6 S 32 41 17 22 1017.3 - 0.0
27/11:00am 25.3 19.1 7.9 33 9.3 SSE 30 43 16 23 1017.4 - 0.0
27/10:30am 24.7 18.7 8.6 36 8.6 SE 30 39 16 21 1017.5 - 0.0
27/10:00am 24.4 19.3 9.2 38 8.2 SE 26 32 14 17 1017.5 - 0.0
27/09:30am 23.4 18.4 12.1 49 6.4 SE 30 39 16 21 1017.4 - 0.0
27/09:00am 22.3 20.9 18.9 81 2.1 SSE 24 30 13 16 1017.2 1017.1 0.0
27/08:30am 20.9 21.0 19.9 94 0.6 SSE 19 24 10 13 1016.8 - 0.0
27/08:00am 20.5 20.7 20.5 100 0.0 SSE 20 28 11 15 1016.2 - 0.0
27/07:30am 20.3 20.4 20.3 100 0.0 S 20 26 11 14 1015.7 - 0.0
27/07:00am 20.0 22.0 20.0 100 0.0 SSW 9 11 5 6 1014.7 - 0.0
27/06:30am 19.8 19.8 19.8 100 0.0 SSW 19 24 10 13 1014.6 - 0.0
27/06:00am 18.2 19.0 18.2 100 0.0 S 11 15 6 8 1014.1 1014.0 0.0
27/05:30am 18.2 19.3 18.0 99 0.1 SSW 9 11 5 6 1013.5 - 0.0
27/05:00am 18.1 19.4 17.6 97 0.3 SSW 7 9 4 5 1013.0 - 0.0
27/04:30am 18.6 20.3 18.1 97 0.3 W 6 6 3 3 1012.7 - 0.0
27/04:00am 18.6 20.4 18.3 98 0.2 W 6 6 3 3 1012.6 - 0.0
27/03:30am 18.7 20.7 18.7 100 0.0 W 6 7 3 4 1012.9 - 0.0
27/03:00am 18.6 20.2 18.3 98 0.2 W 7 7 4 4 1013.2 1013.1 0.0
27/02:30am 19.7 22.0 19.5 99 0.1 N 6 6 3 3 1013.5 - 0.0
27/02:00am 20.0 22.1 19.0 94 0.6 N 6 7 3 4 1013.7 - 0.0
27/01:30am 20.0 21.5 18.8 93 0.8 N 9 9 5 5 1013.6 - 0.0
27/01:00am 20.2 22.1 19.0 93 0.8 N 7 7 4 4 1013.6 - 0.0
27/12:30am 20.5 22.4 19.0 91 0.9 N 7 9 4 5 1013.6 - 0.0
27/12:00am 20.6 22.0 18.7 89 1.2 N 9 9 5 5 1013.7 1013.6 0.0
 
Date/Time
EST
Temp
°C
App
Temp
°C
Dew
Point
°C
Rel
Hum
%
Delta-T
°C
Wind Press
QNH
hPa
Press
MSL
hPa
Rain since
9am
mm
Dir  Spd
km/h
Gust
km/h
Spd
kts
Gust
kts
26/11:30pm 21.3 23.1 19.6 90 1.1 N 9 13 5 7 1013.8 - 0.0
26/11:00pm 20.9 22.3 18.7 87 1.4 N 9 11 5 6 1013.7 - 0.0
26/10:30pm 21.0 22.4 18.6 86 1.5 N 9 11 5 6 1013.8 - 0.0
26/10:00pm 21.5 22.7 19.1 86 1.5 N 11 11 6 6 1013.9 - 0.0
26/09:30pm 21.7 22.6 18.5 82 2.0 N 11 13 6 7 1013.6 - 0.0
26/09:00pm 22.2 23.6 18.6 80 2.3 N 9 11 5 6 1013.3 1013.2 0.0
26/08:30pm 22.5 23.4 18.5 78 2.5 NNE 11 13 6 7 1013.1 - 0.0
26/08:00pm 23.1 24.5 18.6 76 2.8 NNE 9 11 5 6 1012.9 - 0.0
26/07:30pm 24.2 25.4 19.1 73 3.3 NNE 11 15 6 8 1012.5 - 0.0
26/07:00pm 25.3 26.2 19.2 69 3.9 NNE 13 17 7 9 1012.2 - 0.0
26/06:30pm 26.4 27.3 19.3 65 4.6 N 13 17 7 9 1011.9 - 0.0
26/06:00pm 27.8 28.1 18.8 58 5.8 N 15 20 8 11 1011.6 1011.5 0.0
26/05:30pm 29.0 29.3 18.7 53 6.6 N 15 19 8 10 1011.4 - 0.0
26/05:00pm 29.8 29.5 17.3 47 7.9 N 15 19 8 10 1011.3 - 0.0
26/04:30pm 30.0 30.1 17.5 47 7.9 N 13 22 7 12 1011.3 - 0.0
26/04:00pm 30.4 29.7 16.4 43 8.8 N 15 22 8 12 1011.2 - 0.0
26/03:30pm 30.8 30.0 17.1 43 8.7 N 17 22 9 12 1011.3 - 0.0
26/03:00pm 31.2 30.3 16.8 42 9.1 NNE 17 22 9 12 1011.5 1011.4 0.0
26/02:30pm 30.6 29.2 17.0 44 8.6 N 20 28 11 15 1011.7 - 0.0
26/02:00pm 30.2 28.2 13.9 37 9.8 N 17 22 9 12 1012.2 - 0.0
26/01:30pm 30.7 28.7 12.6 33 10.7 NNE 15 24 8 13 1012.8 - 0.0
26/01:00pm 30.0 27.6 10.0 29 11.3 N 13 22 7 12 1013.3 - 0.0
26/12:30pm 30.2 28.1 9.7 28 11.5 NNE 11 19 6 10 1013.9 - 0.0
26/12:00pm 28.6 25.6 7.8 27 11.3 NE 13 17 7 9 1014.3 1014.2 0.0
26/11:30am 27.2 24.4 7.1 28 10.7 NE 11 17 6 9 1014.7 - 0.0
26/11:00am 26.0 23.5 6.6 29 10.1 ESE 9 13 5 7 1015.3 - 0.0
26/10:30am 24.8 21.9 6.5 31 9.5 SE 11 20 6 11 1015.6 - 0.0
26/10:00am 23.2 19.4 6.0 33 8.7 SE 15 20 8 11 1015.8 - 0.0
26/09:30am 22.3 17.8 6.1 35 8.2 SE 19 22 10 12 1015.6 - 0.0
26/09:00am 20.8 16.8 6.7 40 7.1 SE 17 20 9 11 1015.2 1015.1 0.0
26/08:30am 18.2 15.0 7.0 48 5.6 SSE 13 15 7 8 1014.9 - 0.0
26/08:00am 17.7 14.9 6.9 49 5.4 SE 11 13 6 7 1014.6 - 0.0
26/07:30am 16.4 14.4 7.3 55 4.5 SSE 7 9 4 5 1014.5 - 0.0
26/07:00am 16.5 14.1 7.2 54 4.6 S 9 11 5 6 1014.4 - 0.0
26/06:30am 17.0 13.9 7.1 52 4.9 S 13 15 7 8 1014.2 - 0.0
26/06:00am 17.3 13.8 7.4 52 5.0 S 15 17 8 9 1013.8 1013.7 0.0
26/05:30am 17.3 13.5 7.6 53 4.9 S 17 19 9 10 1013.7 - 0.0
26/05:00am 17.1 14.2 8.0 55 4.6 S 13 15 7 8 1013.5 - 0.0
26/04:30am 17.6 14.6 7.9 53 4.9 SSE 13 15 7 8 1013.4 - 0.0
26/04:00am 18.2 14.9 7.9 51 5.3 SSE 15 17 8 9 1013.4 - 0.0
26/03:30am 18.5 15.2 8.2 51 5.3 S 15 17 8 9 1013.5 - 0.0
26/03:00am 18.8 15.5 8.2 50 5.5 S 15 17 8 9 1013.6 1013.5 0.0
26/02:30am 19.2 15.9 8.2 49 5.7 S 15 19 8 10 1013.7 - 0.0
26/02:00am 18.5 15.7 8.5 52 5.2 S 13 15 7 8 1013.9 - 0.0
26/01:30am 19.6 16.8 8.6 49 5.7 S 13 17 7 9 1013.9 - 0.0
26/01:00am 19.9 16.8 8.9 49 5.8 S 15 17 8 9 1014.0 - 0.0
26/12:30am 20.2 17.2 9.2 49 5.8 S 15 17 8 9 1014.1 - 0.0
26/12:00am 19.7 17.1 9.3 51 5.5 S 13 15 7 8 1014.1 1014.0 0.0
 
Date/Time
EST
Temp
°C
App
Temp
°C
Dew
Point
°C
Rel
Hum
%
Delta-T
°C
Wind Press
QNH
hPa
Press
MSL
hPa
Rain since
9am
mm
Dir  Spd
km/h
Gust
km/h
Spd
kts
Gust
kts
25/11:30pm 20.0 17.4 9.3 50 5.7 S 13 15 7 8 1014.3 - 0.0
25/11:00pm 21.3 18.4 9.5 47 6.3 S 15 17 8 9 1014.2 - 0.0
25/10:30pm 21.3 18.4 9.5 47 6.3 S 15 19 8 10 1014.2 - 0.0
25/10:00pm 21.4 18.9 9.6 47 6.3 S 13 15 7 8 1014.3 - 0.0
25/09:30pm 22.6 19.8 10.1 45 6.8 S 15 19 8 10 1014.4 - 0.0
25/09:00pm 22.8 19.6 9.9 44 7.0 S 17 20 9 11 1014.4 1014.3 0.0
25/08:30pm 23.1 20.4 10.2 44 7.1 S 15 19 8 10 1014.3 - 0.0
25/08:00pm 23.8 20.6 10.1 42 7.5 S 17 19 9 10 1014.2 - 0.0
25/07:30pm 23.8 21.4 10.1 42 7.5 S 13 15 7 8 1013.9 - 0.0
25/07:00pm 24.4 22.0 9.9 40 8.0 S 13 15 7 8 1013.8 - 0.0
25/06:30pm 25.7 23.3 9.9 37 8.7 S 13 15 7 8 1013.7 - 0.0
25/06:00pm 27.4 24.9 9.7 33 9.8 SSE 13 17 7 9 1013.5 1013.4 0.0
25/05:30pm 28.6 25.4 9.8 31 10.5 SSE 17 24 9 13 1013.1 - 0.0
25/05:00pm 29.4 25.8 10.0 30 10.9 SSE 19 28 10 15 1013.0 - 0.0
25/04:30pm 29.7 25.9 9.8 29 11.2 SSE 20 28 11 15 1013.0 - 0.0
25/04:00pm 29.3 25.5 9.9 30 10.9 SE 20 30 11 16 1012.9 - 0.0
25/03:30pm 29.6 25.5 10.2 30 11.0 SE 22 32 12 17 1013.0 - 0.0
25/03:00pm 29.5 25.0 10.1 30 11.0 SSE 24 33 13 18 1013.2 1013.1 0.0
25/02:30pm 29.4 24.9 10.0 30 10.9 SE 24 35 13 19 1013.3 - 0.0
25/02:00pm 28.8 23.9 10.0 31 10.6 SSE 26 37 14 20 1013.6 - 0.0
25/01:30pm 28.9 24.0 10.1 31 10.6 SSE 26 39 14 21 1014.1 - 0.0
25/01:00pm 27.6 21.8 9.4 32 10.1 SE 30 37 16 20 1014.6 - 0.0
25/12:30pm 26.8 21.3 9.2 33 9.7 SE 28 35 15 19 1015.1 - 0.0
25/12:00pm 26.3 20.4 9.2 34 9.4 SSE 30 39 16 21 1015.7 1015.6 0.0
25/11:30am 25.7 19.8 9.1 35 9.0 SSE 30 35 16 19 1016.2 - 0.0
25/11:00am 24.3 18.2 8.3 36 8.5 SE 30 39 16 21 1016.4 - 0.0
25/10:30am 23.9 17.8 8.3 37 8.3 SSE 30 41 16 22 1016.7 - 0.0
25/10:00am 22.7 16.0 7.3 37 8.0 SSE 32 43 17 23 1016.8 - 0.0
25/09:30am 21.9 16.0 7.3 39 7.5 SSE 28 41 15 22 1017.1 - 0.0
25/09:00am 20.4 13.6 6.7 41 6.9 SSE 32 43 17 23 1017.0 1016.9 0.0
25/08:30am 19.4 13.6 6.2 42 6.6 SSE 26 39 14 21 1016.9 - 0.0
25/08:00am 18.8 13.5 6.6 45 6.1 SSE 24 32 13 17 1016.7 - 0.0
25/07:30am 18.2 13.3 7.0 48 5.6 S 22 30 12 16 1016.4 - 0.0
25/07:00am 18.3 13.5 7.4 49 5.5 S 22 32 12 17 1016.1 - 0.0
25/06:30am 18.5 14.2 7.9 50 5.4 S 20 26 11 14 1015.9 - 0.0
25/06:00am 18.8 14.6 8.2 50 5.5 SSE 20 28 11 15 1015.7 1015.6 0.0
25/05:30am 19.1 14.6 8.7 51 5.4 SSE 22 30 12 16 1015.4 - 0.0
25/05:00am 19.4 15.4 9.0 51 5.5 SSE 20 28 11 15 1015.1 - 0.0
25/04:30am 19.6 15.3 9.5 52 5.4 SSE 22 28 12 15 1014.8 - 0.0
25/04:00am 20.0 15.5 9.9 52 5.4 SSE 24 30 13 16 1014.5 - 0.0
25/03:30am 20.4 16.0 10.5 53 5.4 SSE 24 32 13 17 1014.5 - 0.0
25/03:00am 20.7 16.4 10.8 53 5.4 SSE 24 32 13 17 1014.5 1014.4 0.0
25/02:30am 21.1 16.9 11.2 53 5.5 SSE 24 32 13 17 1014.8 - 0.0
25/02:00am 21.2 17.9 11.5 54 5.4 SSE 20 28 11 15 1014.8 - 0.0
25/01:30am 21.7 18.5 12.0 54 5.4 SSE 20 28 11 15 1014.8 - 0.0
25/01:00am 22.5 18.6 12.2 52 5.8 SSE 24 32 13 17 1014.9 - 0.0
25/12:30am 22.9 19.9 12.5 52 5.9 SSE 20 28 11 15 1015.2 - 0.0
25/12:00am 23.4 20.1 12.7 51 6.1 SSE 22 32 12 17 1015.2 1015.1 0.0
 
Date/Time
EST
Temp
°C
App
Temp
°C
Dew
Point
°C
Rel
Hum
%
Delta-T
°C
Wind Press
QNH
hPa
Press
MSL
hPa
Rain since
9am
mm
Dir  Spd
km/h
Gust
km/h
Spd
kts
Gust
kts
24/11:30pm 23.5 20.1 12.5 50 6.3 SSE 22 30 12 16 1015.3 - 0.0
24/11:00pm 23.2 19.9 11.6 48 6.5 SSE 20 26 11 14 1015.3 - 0.0
24/10:30pm 23.6 19.8 11.0 45 7.0 SSE 22 32 12 17 1015.4 - 0.0
24/10:00pm 23.4 19.8 9.8 42 7.4 SSE 19 24 10 13 1015.1 - 0.0
24/09:30pm 23.9 19.8 7.9 36 8.4 SSE 19 24 10 13 1015.0 - 0.0
24/09:00pm 24.6 20.4 7.3 33 9.1 SSE 19 24 10 13 1014.9 1014.8 0.0
24/08:30pm 24.1 20.1 6.8 33 9.0 SSE 17 20 9 11 1014.7 - 0.0
24/08:00pm 24.9 21.2 6.1 30 9.7 SSE 15 19 8 10 1014.3 - 0.0
24/07:30pm 26.0 21.9 6.1 28 10.3 SSE 17 20 9 11 1013.9 - 0.0
24/07:00pm 26.7 22.9 5.6 26 10.9 SSE 15 19 8 10 1013.4 - 0.0
24/06:30pm 27.9 23.9 4.9 23 11.8 SSE 15 19 8 10 1013.3 - 0.0
24/06:00pm 29.8 25.8 5.1 21 12.9 SSE 15 17 8 9 1012.8 1012.7 0.0
24/05:30pm 31.5 27.4 4.3 18 14.1 SSE 15 20 8 11 1012.6 - 0.0
24/05:00pm 32.1 27.2 4.0 17 14.6 SE 19 28 10 15 1012.4 - 0.0
24/04:30pm 32.6 27.6 3.5 16 15.0 S 19 24 10 13 1012.2 - 0.0
24/04:00pm 32.7 27.9 4.5 17 14.8 SSE 19 30 10 16 1012.1 - 0.0
24/03:30pm 32.5 28.4 4.3 17 14.7 SSE 15 26 8 14 1012.0 - 0.0
24/03:00pm 32.8 27.6 5.4 18 14.6 SSE 22 33 12 18 1012.1 1012.0 0.0
24/02:30pm 33.5 29.9 6.7 19 14.6 SSE 15 24 8 13 1012.3 - 0.0
24/02:00pm 32.7 29.1 6.8 20 14.1 SSE 15 22 8 12 1012.8 - 0.0
24/01:30pm 32.7 28.4 6.8 20 14.1 SSE 19 28 10 15 1013.1 - 0.0
24/01:00pm 32.1 27.5 5.6 19 14.1 SE 19 26 10 14 1013.6 - 0.0
24/12:30pm 31.9 26.1 4.6 18 14.3 S 24 32 13 17 1014.2 - 0.0

Other Formats:

Comma delimited format used in spreadsheet applications
http://www.bom.gov.au/fwo/IDQ60801/IDQ60801.94260.axf

JavaScript Object Notation format (JSON) in row-major order
http://www.bom.gov.au/fwo/IDQ60801/IDQ60801.94260.json